sensor_id;sensor_type;location;lat;lon;timestamp;P1;durP1;ratioP1;P2;durP2;ratioP2
22160;SDS011;49035;48.812;11.762;2023-12-20T00:01:02;12.97;;;8.33;;
22160;SDS011;49035;48.812;11.762;2023-12-20T00:03:28;14.70;;;9.10;;
22160;SDS011;49035;48.812;11.762;2023-12-20T00:05:54;11.27;;;7.27;;
22160;SDS011;49035;48.812;11.762;2023-12-20T00:08:20;14.03;;;8.70;;
22160;SDS011;49035;48.812;11.762;2023-12-20T00:10:46;12.40;;;8.83;;
22160;SDS011;49035;48.812;11.762;2023-12-20T00:13:11;12.10;;;8.63;;
22160;SDS011;49035;48.812;11.762;2023-12-20T00:15:37;11.65;;;7.47;;
22160;SDS011;49035;48.812;11.762;2023-12-20T00:18:03;11.80;;;7.87;;
22160;SDS011;49035;48.812;11.762;2023-12-20T00:20:29;13.70;;;7.87;;
22160;SDS011;49035;48.812;11.762;2023-12-20T00:22:55;10.57;;;7.30;;
22160;SDS011;49035;48.812;11.762;2023-12-20T00:25:22;10.27;;;7.07;;
22160;SDS011;49035;48.812;11.762;2023-12-20T00:27:48;10.85;;;7.68;;
22160;SDS011;49035;48.812;11.762;2023-12-20T00:30:13;11.77;;;7.72;;
22160;SDS011;49035;48.812;11.762;2023-12-20T00:32:39;9.63;;;6.85;;
22160;SDS011;49035;48.812;11.762;2023-12-20T00:35:11;11.43;;;7.33;;
22160;SDS011;49035;48.812;11.762;2023-12-20T00:37:37;10.73;;;7.87;;
22160;SDS011;49035;48.812;11.762;2023-12-20T00:40:02;10.05;;;7.50;;
22160;SDS011;49035;48.812;11.762;2023-12-20T00:42:28;11.50;;;7.40;;
22160;SDS011;49035;48.812;11.762;2023-12-20T00:44:54;8.50;;;7.05;;
22160;SDS011;49035;48.812;11.762;2023-12-20T00:47:20;10.88;;;7.68;;
22160;SDS011;49035;48.812;11.762;2023-12-20T00:49:45;9.77;;;6.57;;
22160;SDS011;49035;48.812;11.762;2023-12-20T00:52:11;10.13;;;7.07;;
22160;SDS011;49035;48.812;11.762;2023-12-20T00:54:36;9.52;;;6.78;;
22160;SDS011;49035;48.812;11.762;2023-12-20T00:57:02;10.30;;;6.50;;
22160;SDS011;49035;48.812;11.762;2023-12-20T00:59:27;9.27;;;6.77;;
22160;SDS011;49035;48.812;11.762;2023-12-20T01:01:53;10.30;;;6.68;;
22160;SDS011;49035;48.812;11.762;2023-12-20T01:04:18;8.97;;;6.57;;
22160;SDS011;49035;48.812;11.762;2023-12-20T01:06:44;10.98;;;6.50;;
22160;SDS011;49035;48.812;11.762;2023-12-20T01:09:10;10.00;;;6.78;;
22160;SDS011;49035;48.812;11.762;2023-12-20T01:11:35;10.00;;;6.93;;
22160;SDS011;49035;48.812;11.762;2023-12-20T01:14:01;10.47;;;7.10;;
22160;SDS011;49035;48.812;11.762;2023-12-20T01:16:26;11.70;;;6.57;;
22160;SDS011;49035;48.812;11.762;2023-12-20T01:18:52;11.00;;;7.27;;
22160;SDS011;49035;48.812;11.762;2023-12-20T01:21:17;8.80;;;6.45;;
22160;SDS011;49035;48.812;11.762;2023-12-20T01:23:43;9.93;;;6.50;;
22160;SDS011;49035;48.812;11.762;2023-12-20T01:26:08;9.60;;;6.63;;
22160;SDS011;49035;48.812;11.762;2023-12-20T01:28:34;9.50;;;6.37;;
22160;SDS011;49035;48.812;11.762;2023-12-20T01:31:00;10.97;;;7.17;;
22160;SDS011;49035;48.812;11.762;2023-12-20T01:33:25;15.37;;;7.30;;
22160;SDS011;49035;48.812;11.762;2023-12-20T01:35:51;8.90;;;6.50;;
22160;SDS011;49035;48.812;11.762;2023-12-20T01:38:16;10.37;;;6.47;;
22160;SDS011;49035;48.812;11.762;2023-12-20T01:40:43;10.37;;;6.80;;
22160;SDS011;49035;48.812;11.762;2023-12-20T01:43:09;9.43;;;6.80;;
22160;SDS011;49035;48.812;11.762;2023-12-20T01:45:37;10.07;;;7.03;;
22160;SDS011;49035;48.812;11.762;2023-12-20T01:48:03;9.57;;;6.77;;
22160;SDS011;49035;48.812;11.762;2023-12-20T01:50:30;13.63;;;6.67;;
22160;SDS011;49035;48.812;11.762;2023-12-20T01:52:57;9.93;;;6.87;;
22160;SDS011;49035;48.812;11.762;2023-12-20T01:55:25;9.17;;;6.43;;
22160;SDS011;49035;48.812;11.762;2023-12-20T01:57:55;8.40;;;6.53;;
22160;SDS011;49035;48.812;11.762;2023-12-20T02:00:22;9.55;;;6.53;;
22160;SDS011;49035;48.812;11.762;2023-12-20T02:02:49;10.37;;;6.67;;
22160;SDS011;49035;48.812;11.762;2023-12-20T02:05:17;11.77;;;6.80;;
22160;SDS011;49035;48.812;11.762;2023-12-20T02:07:43;8.57;;;5.90;;
22160;SDS011;49035;48.812;11.762;2023-12-20T02:10:09;10.83;;;6.50;;
22160;SDS011;49035;48.812;11.762;2023-12-20T02:12:34;12.33;;;7.13;;
22160;SDS011;49035;48.812;11.762;2023-12-20T02:15:00;9.70;;;6.53;;
22160;SDS011;49035;48.812;11.762;2023-12-20T02:17:26;9.60;;;6.57;;
22160;SDS011;49035;48.812;11.762;2023-12-20T02:19:52;10.27;;;6.70;;
22160;SDS011;49035;48.812;11.762;2023-12-20T02:22:18;9.33;;;6.87;;
22160;SDS011;49035;48.812;11.762;2023-12-20T02:24:44;10.57;;;6.60;;
22160;SDS011;49035;48.812;11.762;2023-12-20T02:27:09;11.20;;;7.17;;
22160;SDS011;49035;48.812;11.762;2023-12-20T02:29:35;9.10;;;6.43;;
22160;SDS011;49035;48.812;11.762;2023-12-20T02:32:01;12.03;;;6.67;;
22160;SDS011;49035;48.812;11.762;2023-12-20T02:34:27;10.43;;;6.97;;
22160;SDS011;49035;48.812;11.762;2023-12-20T02:36:53;11.25;;;6.90;;
22160;SDS011;49035;48.812;11.762;2023-12-20T02:39:19;10.80;;;7.10;;
22160;SDS011;49035;48.812;11.762;2023-12-20T02:41:46;10.57;;;7.00;;
22160;SDS011;49035;48.812;11.762;2023-12-20T02:44:11;11.45;;;7.05;;
22160;SDS011;49035;48.812;11.762;2023-12-20T02:46:37;9.57;;;6.73;;
22160;SDS011;49035;48.812;11.762;2023-12-20T02:49:03;11.48;;;7.07;;
22160;SDS011;49035;48.812;11.762;2023-12-20T02:51:28;11.37;;;7.47;;
22160;SDS011;49035;48.812;11.762;2023-12-20T02:53:54;10.23;;;6.80;;
22160;SDS011;49035;48.812;11.762;2023-12-20T02:56:19;9.23;;;6.32;;
22160;SDS011;49035;48.812;11.762;2023-12-20T02:58:45;10.45;;;7.03;;
22160;SDS011;49035;48.812;11.762;2023-12-20T03:01:10;10.80;;;6.73;;
22160;SDS011;49035;48.812;11.762;2023-12-20T03:03:36;10.50;;;6.23;;
22160;SDS011;49035;48.812;11.762;2023-12-20T03:06:01;9.77;;;6.38;;
22160;SDS011;49035;48.812;11.762;2023-12-20T03:08:27;10.60;;;6.53;;
22160;SDS011;49035;48.812;11.762;2023-12-20T03:10:53;11.43;;;6.47;;
22160;SDS011;49035;48.812;11.762;2023-12-20T03:13:18;10.32;;;6.25;;
22160;SDS011;49035;48.812;11.762;2023-12-20T03:15:45;9.35;;;6.50;;
22160;SDS011;49035;48.812;11.762;2023-12-20T03:18:11;8.55;;;5.85;;
22160;SDS011;49035;48.812;11.762;2023-12-20T03:20:36;9.10;;;5.30;;
22160;SDS011;49035;48.812;11.762;2023-12-20T03:23:02;7.80;;;5.10;;
22160;SDS011;49035;48.812;11.762;2023-12-20T03:25:28;8.40;;;5.33;;
22160;SDS011;49035;48.812;11.762;2023-12-20T03:27:54;11.70;;;6.90;;
22160;SDS011;49035;48.812;11.762;2023-12-20T03:30:20;11.55;;;7.30;;
22160;SDS011;49035;48.812;11.762;2023-12-20T03:32:46;11.73;;;6.93;;
22160;SDS011;49035;48.812;11.762;2023-12-20T03:35:11;14.37;;;7.60;;
22160;SDS011;49035;48.812;11.762;2023-12-20T03:37:37;6.87;;;4.93;;
22160;SDS011;49035;48.812;11.762;2023-12-20T03:40:03;7.33;;;4.60;;
22160;SDS011;49035;48.812;11.762;2023-12-20T03:42:29;6.40;;;4.53;;
22160;SDS011;49035;48.812;11.762;2023-12-20T03:44:54;14.30;;;7.20;;
22160;SDS011;49035;48.812;11.762;2023-12-20T03:47:20;12.10;;;6.33;;
22160;SDS011;49035;48.812;11.762;2023-12-20T03:49:45;10.90;;;6.63;;
22160;SDS011;49035;48.812;11.762;2023-12-20T03:52:11;8.03;;;5.63;;
22160;SDS011;49035;48.812;11.762;2023-12-20T03:54:37;7.40;;;4.80;;
22160;SDS011;49035;48.812;11.762;2023-12-20T03:57:02;8.73;;;5.33;;
22160;SDS011;49035;48.812;11.762;2023-12-20T03:59:28;8.17;;;5.23;;
22160;SDS011;49035;48.812;11.762;2023-12-20T04:01:54;7.90;;;4.30;;
22160;SDS011;49035;48.812;11.762;2023-12-20T04:04:20;8.03;;;4.73;;
22160;SDS011;49035;48.812;11.762;2023-12-20T04:06:45;6.87;;;4.17;;
22160;SDS011;49035;48.812;11.762;2023-12-20T04:09:11;13.20;;;6.32;;
22160;SDS011;49035;48.812;11.762;2023-12-20T04:11:37;6.10;;;4.10;;
22160;SDS011;49035;48.812;11.762;2023-12-20T04:14:06;8.10;;;5.20;;
22160;SDS011;49035;48.812;11.762;2023-12-20T04:16:32;9.20;;;5.20;;
22160;SDS011;49035;48.812;11.762;2023-12-20T04:19:00;8.67;;;5.60;;
22160;SDS011;49035;48.812;11.762;2023-12-20T04:21:29;5.70;;;4.87;;
22160;SDS011;49035;48.812;11.762;2023-12-20T04:23:55;6.57;;;4.13;;
22160;SDS011;49035;48.812;11.762;2023-12-20T04:26:20;10.07;;;5.20;;
22160;SDS011;49035;48.812;11.762;2023-12-20T04:28:46;8.80;;;5.23;;
22160;SDS011;49035;48.812;11.762;2023-12-20T04:31:12;7.65;;;5.20;;
22160;SDS011;49035;48.812;11.762;2023-12-20T04:33:38;7.10;;;5.25;;
22160;SDS011;49035;48.812;11.762;2023-12-20T04:36:03;6.17;;;4.70;;
22160;SDS011;49035;48.812;11.762;2023-12-20T04:38:34;6.87;;;4.60;;
22160;SDS011;49035;48.812;11.762;2023-12-20T04:41:02;7.37;;;5.30;;
22160;SDS011;49035;48.812;11.762;2023-12-20T04:43:28;7.53;;;5.20;;
22160;SDS011;49035;48.812;11.762;2023-12-20T04:45:58;8.38;;;5.70;;
22160;SDS011;49035;48.812;11.762;2023-12-20T04:48:24;8.20;;;4.93;;
22160;SDS011;49035;48.812;11.762;2023-12-20T04:50:53;8.50;;;5.20;;
22160;SDS011;49035;48.812;11.762;2023-12-20T04:53:23;12.60;;;4.83;;
22160;SDS011;49035;48.812;11.762;2023-12-20T04:55:57;7.70;;;4.97;;
22160;SDS011;49035;48.812;11.762;2023-12-20T04:58:23;9.27;;;5.10;;
22160;SDS011;49035;48.812;11.762;2023-12-20T05:00:49;9.65;;;6.45;;
22160;SDS011;49035;48.812;11.762;2023-12-20T05:03:14;8.73;;;5.93;;
22160;SDS011;49035;48.812;11.762;2023-12-20T05:05:40;9.20;;;5.47;;
22160;SDS011;49035;48.812;11.762;2023-12-20T05:08:11;9.93;;;5.67;;
22160;SDS011;49035;48.812;11.762;2023-12-20T05:10:36;8.87;;;5.90;;
22160;SDS011;49035;48.812;11.762;2023-12-20T05:13:02;12.13;;;6.13;;
22160;SDS011;49035;48.812;11.762;2023-12-20T05:15:38;9.27;;;5.77;;
22160;SDS011;49035;48.812;11.762;2023-12-20T05:18:07;8.67;;;5.80;;
22160;SDS011;49035;48.812;11.762;2023-12-20T05:20:32;8.83;;;6.03;;
22160;SDS011;49035;48.812;11.762;2023-12-20T05:23:11;8.50;;;6.10;;
22160;SDS011;49035;48.812;11.762;2023-12-20T05:25:38;8.27;;;5.93;;
22160;SDS011;49035;48.812;11.762;2023-12-20T05:28:26;10.60;;;5.87;;
22160;SDS011;49035;48.812;11.762;2023-12-20T05:30:51;12.63;;;5.67;;
22160;SDS011;49035;48.812;11.762;2023-12-20T05:33:23;8.60;;;5.53;;
22160;SDS011;49035;48.812;11.762;2023-12-20T05:35:49;7.07;;;5.20;;
22160;SDS011;49035;48.812;11.762;2023-12-20T05:38:15;8.27;;;5.80;;
22160;SDS011;49035;48.812;11.762;2023-12-20T05:40:41;8.07;;;5.47;;
22160;SDS011;49035;48.812;11.762;2023-12-20T05:43:16;8.50;;;5.43;;
22160;SDS011;49035;48.812;11.762;2023-12-20T05:45:42;7.33;;;5.00;;
22160;SDS011;49035;48.812;11.762;2023-12-20T05:48:13;10.23;;;5.00;;
22160;SDS011;49035;48.812;11.762;2023-12-20T05:50:41;9.60;;;5.10;;
22160;SDS011;49035;48.812;11.762;2023-12-20T05:53:10;6.90;;;4.70;;
22160;SDS011;49035;48.812;11.762;2023-12-20T05:55:35;7.10;;;5.30;;
22160;SDS011;49035;48.812;11.762;2023-12-20T05:58:01;5.80;;;4.50;;
22160;SDS011;49035;48.812;11.762;2023-12-20T06:00:30;7.57;;;4.77;;
22160;SDS011;49035;48.812;11.762;2023-12-20T06:02:58;5.83;;;4.50;;
22160;SDS011;49035;48.812;11.762;2023-12-20T06:05:27;7.20;;;4.97;;
22160;SDS011;49035;48.812;11.762;2023-12-20T06:07:57;7.13;;;5.17;;
22160;SDS011;49035;48.812;11.762;2023-12-20T06:10:27;9.30;;;4.83;;
22160;SDS011;49035;48.812;11.762;2023-12-20T06:12:52;7.70;;;4.60;;
22160;SDS011;49035;48.812;11.762;2023-12-20T06:15:18;9.67;;;5.37;;
22160;SDS011;49035;48.812;11.762;2023-12-20T06:17:44;6.97;;;4.80;;
22160;SDS011;49035;48.812;11.762;2023-12-20T06:20:11;7.63;;;4.70;;
22160;SDS011;49035;48.812;11.762;2023-12-20T06:22:42;6.20;;;4.70;;
22160;SDS011;49035;48.812;11.762;2023-12-20T06:25:11;7.33;;;5.10;;
22160;SDS011;49035;48.812;11.762;2023-12-20T06:27:36;9.07;;;5.53;;
22160;SDS011;49035;48.812;11.762;2023-12-20T06:30:02;9.70;;;5.57;;
22160;SDS011;49035;48.812;11.762;2023-12-20T06:32:28;8.60;;;5.23;;
22160;SDS011;49035;48.812;11.762;2023-12-20T06:34:54;10.25;;;5.82;;
22160;SDS011;49035;48.812;11.762;2023-12-20T06:37:20;9.70;;;4.93;;
22160;SDS011;49035;48.812;11.762;2023-12-20T06:39:45;7.83;;;5.10;;
22160;SDS011;49035;48.812;11.762;2023-12-20T06:42:12;11.30;;;5.80;;
22160;SDS011;49035;48.812;11.762;2023-12-20T06:44:38;11.70;;;6.03;;
22160;SDS011;49035;48.812;11.762;2023-12-20T06:47:04;9.23;;;5.80;;
22160;SDS011;49035;48.812;11.762;2023-12-20T06:49:29;8.07;;;5.70;;
22160;SDS011;49035;48.812;11.762;2023-12-20T06:51:55;9.40;;;6.63;;
22160;SDS011;49035;48.812;11.762;2023-12-20T06:54:21;9.73;;;6.20;;
22160;SDS011;49035;48.812;11.762;2023-12-20T06:56:46;9.77;;;6.23;;
22160;SDS011;49035;48.812;11.762;2023-12-20T06:59:12;10.17;;;6.77;;
22160;SDS011;49035;48.812;11.762;2023-12-20T07:01:37;8.33;;;6.07;;
22160;SDS011;49035;48.812;11.762;2023-12-20T07:04:03;8.70;;;5.43;;
22160;SDS011;49035;48.812;11.762;2023-12-20T07:06:28;9.25;;;6.20;;
22160;SDS011;49035;48.812;11.762;2023-12-20T07:08:54;8.27;;;5.83;;
22160;SDS011;49035;48.812;11.762;2023-12-20T07:11:19;8.33;;;5.47;;
22160;SDS011;49035;48.812;11.762;2023-12-20T07:13:45;7.97;;;5.23;;
22160;SDS011;49035;48.812;11.762;2023-12-20T07:16:11;7.00;;;5.37;;
22160;SDS011;49035;48.812;11.762;2023-12-20T07:18:38;9.60;;;5.03;;
22160;SDS011;49035;48.812;11.762;2023-12-20T07:21:03;7.47;;;5.23;;
22160;SDS011;49035;48.812;11.762;2023-12-20T07:23:29;7.20;;;5.50;;
22160;SDS011;49035;48.812;11.762;2023-12-20T07:25:55;7.67;;;5.20;;
22160;SDS011;49035;48.812;11.762;2023-12-20T07:28:20;9.63;;;5.33;;
22160;SDS011;49035;48.812;11.762;2023-12-20T07:30:46;5.32;;;4.55;;
22160;SDS011;49035;48.812;11.762;2023-12-20T07:33:11;7.27;;;4.70;;
22160;SDS011;49035;48.812;11.762;2023-12-20T07:35:37;7.37;;;5.47;;
22160;SDS011;49035;48.812;11.762;2023-12-20T07:38:03;6.50;;;4.55;;
22160;SDS011;49035;48.812;11.762;2023-12-20T07:40:29;6.43;;;4.33;;
22160;SDS011;49035;48.812;11.762;2023-12-20T07:42:54;5.67;;;4.27;;
22160;SDS011;49035;48.812;11.762;2023-12-20T07:45:20;6.73;;;4.70;;
22160;SDS011;49035;48.812;11.762;2023-12-20T07:47:45;6.32;;;4.78;;
22160;SDS011;49035;48.812;11.762;2023-12-20T07:50:11;8.87;;;4.47;;
22160;SDS011;49035;48.812;11.762;2023-12-20T07:52:37;8.07;;;4.83;;
22160;SDS011;49035;48.812;11.762;2023-12-20T07:55:02;7.20;;;4.97;;
22160;SDS011;49035;48.812;11.762;2023-12-20T07:57:29;8.33;;;4.90;;
22160;SDS011;49035;48.812;11.762;2023-12-20T07:59:55;6.83;;;5.00;;
22160;SDS011;49035;48.812;11.762;2023-12-20T08:02:21;7.83;;;4.87;;
22160;SDS011;49035;48.812;11.762;2023-12-20T08:04:46;7.40;;;4.63;;
22160;SDS011;49035;48.812;11.762;2023-12-20T08:07:12;7.63;;;4.50;;
22160;SDS011;49035;48.812;11.762;2023-12-20T08:09:37;5.93;;;3.93;;
22160;SDS011;49035;48.812;11.762;2023-12-20T08:12:03;6.27;;;4.30;;
22160;SDS011;49035;48.812;11.762;2023-12-20T08:14:29;5.27;;;3.77;;
22160;SDS011;49035;48.812;11.762;2023-12-20T08:16:54;4.43;;;3.80;;
22160;SDS011;49035;48.812;11.762;2023-12-20T08:19:20;6.03;;;3.70;;
22160;SDS011;49035;48.812;11.762;2023-12-20T08:21:46;4.07;;;3.27;;
22160;SDS011;49035;48.812;11.762;2023-12-20T08:24:11;5.63;;;3.47;;
22160;SDS011;49035;48.812;11.762;2023-12-20T08:26:37;4.93;;;3.70;;
22160;SDS011;49035;48.812;11.762;2023-12-20T08:29:02;5.17;;;3.90;;
22160;SDS011;49035;48.812;11.762;2023-12-20T08:31:28;4.40;;;3.30;;
22160;SDS011;49035;48.812;11.762;2023-12-20T08:33:54;4.53;;;3.73;;
22160;SDS011;49035;48.812;11.762;2023-12-20T08:36:19;4.80;;;3.37;;
22160;SDS011;49035;48.812;11.762;2023-12-20T08:38:47;5.63;;;3.80;;
22160;SDS011;49035;48.812;11.762;2023-12-20T08:41:13;4.20;;;3.80;;
22160;SDS011;49035;48.812;11.762;2023-12-20T08:43:38;5.60;;;3.97;;
22160;SDS011;49035;48.812;11.762;2023-12-20T08:46:05;4.20;;;3.63;;
22160;SDS011;49035;48.812;11.762;2023-12-20T08:48:31;5.27;;;4.00;;
22160;SDS011;49035;48.812;11.762;2023-12-20T08:50:56;5.60;;;3.63;;
22160;SDS011;49035;48.812;11.762;2023-12-20T08:53:22;5.10;;;3.20;;
22160;SDS011;49035;48.812;11.762;2023-12-20T08:55:48;4.85;;;3.40;;
22160;SDS011;49035;48.812;11.762;2023-12-20T08:58:14;6.67;;;3.57;;
22160;SDS011;49035;48.812;11.762;2023-12-20T09:00:40;4.30;;;3.60;;
22160;SDS011;49035;48.812;11.762;2023-12-20T09:03:05;4.45;;;3.60;;
22160;SDS011;49035;48.812;11.762;2023-12-20T09:05:31;5.55;;;4.18;;
22160;SDS011;49035;48.812;11.762;2023-12-20T09:07:56;7.43;;;4.20;;
22160;SDS011;49035;48.812;11.762;2023-12-20T09:10:22;6.37;;;4.50;;
22160;SDS011;49035;48.812;11.762;2023-12-20T09:12:49;6.83;;;4.93;;
22160;SDS011;49035;48.812;11.762;2023-12-20T09:15:16;6.50;;;4.45;;
22160;SDS011;49035;48.812;11.762;2023-12-20T09:17:41;6.90;;;5.05;;
22160;SDS011;49035;48.812;11.762;2023-12-20T09:20:08;9.18;;;5.00;;
22160;SDS011;49035;48.812;11.762;2023-12-20T09:22:34;6.82;;;4.95;;
22160;SDS011;49035;48.812;11.762;2023-12-20T09:25:00;6.43;;;5.00;;
22160;SDS011;49035;48.812;11.762;2023-12-20T09:27:27;7.13;;;5.53;;
22160;SDS011;49035;48.812;11.762;2023-12-20T09:29:52;6.93;;;5.30;;
22160;SDS011;49035;48.812;11.762;2023-12-20T09:32:18;7.50;;;5.15;;
22160;SDS011;49035;48.812;11.762;2023-12-20T09:34:45;10.53;;;5.53;;
22160;SDS011;49035;48.812;11.762;2023-12-20T09:37:12;6.65;;;5.35;;
22160;SDS011;49035;48.812;11.762;2023-12-20T09:39:38;6.63;;;5.00;;
22160;SDS011;49035;48.812;11.762;2023-12-20T09:42:04;8.20;;;4.90;;
22160;SDS011;49035;48.812;11.762;2023-12-20T09:44:31;6.93;;;4.72;;
22160;SDS011;49035;48.812;11.762;2023-12-20T09:46:59;8.88;;;4.47;;
22160;SDS011;49035;48.812;11.762;2023-12-20T09:49:28;5.55;;;4.50;;
22160;SDS011;49035;48.812;11.762;2023-12-20T09:51:54;4.85;;;3.83;;
22160;SDS011;49035;48.812;11.762;2023-12-20T09:54:21;5.97;;;3.90;;
22160;SDS011;49035;48.812;11.762;2023-12-20T09:56:47;5.20;;;3.70;;
22160;SDS011;49035;48.812;11.762;2023-12-20T09:59:13;6.03;;;3.42;;
22160;SDS011;49035;48.812;11.762;2023-12-20T10:01:40;4.05;;;3.38;;
22160;SDS011;49035;48.812;11.762;2023-12-20T10:04:06;4.05;;;3.05;;
22160;SDS011;49035;48.812;11.762;2023-12-20T10:06:36;4.10;;;3.17;;
22160;SDS011;49035;48.812;11.762;2023-12-20T10:09:06;3.00;;;2.70;;
22160;SDS011;49035;48.812;11.762;2023-12-20T10:11:32;4.13;;;2.85;;
22160;SDS011;49035;48.812;11.762;2023-12-20T10:13:59;3.78;;;2.90;;
22160;SDS011;49035;48.812;11.762;2023-12-20T10:16:28;3.53;;;3.13;;
22160;SDS011;49035;48.812;11.762;2023-12-20T10:18:54;3.20;;;2.88;;
22160;SDS011;49035;48.812;11.762;2023-12-20T10:21:20;4.20;;;3.08;;
22160;SDS011;49035;48.812;11.762;2023-12-20T10:23:46;3.95;;;3.45;;
22160;SDS011;49035;48.812;11.762;2023-12-20T10:26:21;3.08;;;2.60;;
22160;SDS011;49035;48.812;11.762;2023-12-20T10:28:55;2.80;;;2.60;;
22160;SDS011;49035;48.812;11.762;2023-12-20T10:31:28;3.80;;;2.67;;
22160;SDS011;49035;48.812;11.762;2023-12-20T10:33:56;2.97;;;2.53;;
22160;SDS011;49035;48.812;11.762;2023-12-20T10:36:24;3.65;;;2.70;;
22160;SDS011;49035;48.812;11.762;2023-12-20T10:38:52;3.45;;;2.58;;
22160;SDS011;49035;48.812;11.762;2023-12-20T10:41:31;2.60;;;2.40;;
22160;SDS011;49035;48.812;11.762;2023-12-20T10:44:02;2.63;;;2.28;;
22160;SDS011;49035;48.812;11.762;2023-12-20T10:46:29;2.42;;;2.17;;
22160;SDS011;49035;48.812;11.762;2023-12-20T10:48:57;1.60;;;1.35;;
22160;SDS011;49035;48.812;11.762;2023-12-20T10:51:23;2.67;;;1.52;;
22160;SDS011;49035;48.812;11.762;2023-12-20T10:53:51;1.80;;;1.70;;
22160;SDS011;49035;48.812;11.762;2023-12-20T10:56:18;2.10;;;1.90;;
22160;SDS011;49035;48.812;11.762;2023-12-20T10:58:46;2.33;;;2.13;;
22160;SDS011;49035;48.812;11.762;2023-12-20T11:01:16;2.63;;;1.80;;
22160;SDS011;49035;48.812;11.762;2023-12-20T11:03:49;2.63;;;2.10;;
22160;SDS011;49035;48.812;11.762;2023-12-20T11:09:08;2.00;;;1.80;;
22160;SDS011;49035;48.812;11.762;2023-12-20T11:11:42;1.73;;;1.63;;
22160;SDS011;49035;48.812;11.762;2023-12-20T11:14:15;3.10;;;1.70;;
22160;SDS011;49035;48.812;11.762;2023-12-20T11:16:45;1.97;;;1.80;;
22160;SDS011;49035;48.812;11.762;2023-12-20T11:19:11;2.20;;;1.40;;
22160;SDS011;49035;48.812;11.762;2023-12-20T11:21:39;3.83;;;1.50;;
22160;SDS011;49035;48.812;11.762;2023-12-20T11:24:05;2.27;;;1.77;;
22160;SDS011;49035;48.812;11.762;2023-12-20T11:26:31;1.40;;;1.30;;
22160;SDS011;49035;48.812;11.762;2023-12-20T11:32:03;2.03;;;1.53;;
22160;SDS011;49035;48.812;11.762;2023-12-20T11:34:50;2.05;;;1.60;;
22160;SDS011;49035;48.812;11.762;2023-12-20T11:37:16;2.97;;;1.20;;
22160;SDS011;49035;48.812;11.762;2023-12-20T11:39:42;1.80;;;1.50;;
22160;SDS011;49035;48.812;11.762;2023-12-20T11:42:08;2.77;;;1.57;;
22160;SDS011;49035;48.812;11.762;2023-12-20T11:44:36;3.03;;;1.40;;
22160;SDS011;49035;48.812;11.762;2023-12-20T11:47:02;2.65;;;1.52;;
22160;SDS011;49035;48.812;11.762;2023-12-20T11:49:28;3.70;;;1.40;;
22160;SDS011;49035;48.812;11.762;2023-12-20T11:51:55;2.97;;;1.80;;
22160;SDS011;49035;48.812;11.762;2023-12-20T11:54:21;3.17;;;1.60;;
22160;SDS011;49035;48.812;11.762;2023-12-20T11:56:47;2.08;;;1.50;;
22160;SDS011;49035;48.812;11.762;2023-12-20T11:59:13;3.38;;;1.70;;
22160;SDS011;49035;48.812;11.762;2023-12-20T12:01:40;3.08;;;1.40;;
22160;SDS011;49035;48.812;11.762;2023-12-20T12:04:12;2.28;;;1.85;;
22160;SDS011;49035;48.812;11.762;2023-12-20T12:06:37;4.28;;;2.35;;
22160;SDS011;49035;48.812;11.762;2023-12-20T12:09:03;2.63;;;1.50;;
22160;SDS011;49035;48.812;11.762;2023-12-20T12:11:29;2.40;;;1.77;;
22160;SDS011;49035;48.812;11.762;2023-12-20T12:13:55;3.05;;;1.42;;
22160;SDS011;49035;48.812;11.762;2023-12-20T12:16:21;1.48;;;1.38;;
22160;SDS011;49035;48.812;11.762;2023-12-20T12:18:54;1.60;;;1.50;;
22160;SDS011;49035;48.812;11.762;2023-12-20T12:21:24;3.03;;;2.00;;
22160;SDS011;49035;48.812;11.762;2023-12-20T12:23:49;2.45;;;1.92;;
22160;SDS011;49035;48.812;11.762;2023-12-20T12:26:15;2.20;;;1.40;;
22160;SDS011;49035;48.812;11.762;2023-12-20T12:28:41;2.10;;;1.60;;
22160;SDS011;49035;48.812;11.762;2023-12-20T12:31:07;3.63;;;1.60;;
22160;SDS011;49035;48.812;11.762;2023-12-20T12:33:37;2.28;;;1.50;;
22160;SDS011;49035;48.812;11.762;2023-12-20T12:36:03;4.03;;;2.63;;
22160;SDS011;49035;48.812;11.762;2023-12-20T12:38:32;3.83;;;2.50;;
22160;SDS011;49035;48.812;11.762;2023-12-20T12:40:57;3.53;;;2.23;;
22160;SDS011;49035;48.812;11.762;2023-12-20T12:43:23;2.85;;;1.90;;
22160;SDS011;49035;48.812;11.762;2023-12-20T12:45:49;2.35;;;1.95;;
22160;SDS011;49035;48.812;11.762;2023-12-20T12:48:15;5.25;;;2.10;;
22160;SDS011;49035;48.812;11.762;2023-12-20T12:50:41;2.75;;;2.20;;
22160;SDS011;49035;48.812;11.762;2023-12-20T12:53:06;3.67;;;2.33;;
22160;SDS011;49035;48.812;11.762;2023-12-20T12:55:32;4.30;;;2.10;;
22160;SDS011;49035;48.812;11.762;2023-12-20T12:57:59;2.58;;;1.83;;
22160;SDS011;49035;48.812;11.762;2023-12-20T13:00:25;4.43;;;2.03;;
22160;SDS011;49035;48.812;11.762;2023-12-20T13:02:51;2.05;;;1.40;;
22160;SDS011;49035;48.812;11.762;2023-12-20T13:05:16;2.88;;;1.30;;
22160;SDS011;49035;48.812;11.762;2023-12-20T13:07:42;3.70;;;1.80;;
22160;SDS011;49035;48.812;11.762;2023-12-20T13:10:10;1.83;;;1.30;;
22160;SDS011;49035;48.812;11.762;2023-12-20T13:12:36;2.22;;;1.55;;
22160;SDS011;49035;48.812;11.762;2023-12-20T13:15:02;4.57;;;1.67;;
22160;SDS011;49035;48.812;11.762;2023-12-20T13:17:31;3.33;;;1.92;;
22160;SDS011;49035;48.812;11.762;2023-12-20T13:19:56;2.13;;;1.20;;
22160;SDS011;49035;48.812;11.762;2023-12-20T13:22:22;3.58;;;1.50;;
22160;SDS011;49035;48.812;11.762;2023-12-20T13:24:48;2.25;;;1.42;;
22160;SDS011;49035;48.812;11.762;2023-12-20T13:27:13;3.00;;;1.13;;
22160;SDS011;49035;48.812;11.762;2023-12-20T13:29:39;3.53;;;1.83;;
22160;SDS011;49035;48.812;11.762;2023-12-20T13:32:05;3.05;;;1.50;;
22160;SDS011;49035;48.812;11.762;2023-12-20T13:34:31;3.08;;;1.75;;
22160;SDS011;49035;48.812;11.762;2023-12-20T13:36:56;4.90;;;1.70;;
22160;SDS011;49035;48.812;11.762;2023-12-20T13:39:22;8.38;;;2.00;;
22160;SDS011;49035;48.812;11.762;2023-12-20T13:41:48;8.50;;;1.60;;
22160;SDS011;49035;48.812;11.762;2023-12-20T13:44:13;4.83;;;1.30;;
22160;SDS011;49035;48.812;11.762;2023-12-20T13:46:40;2.58;;;1.73;;
22160;SDS011;49035;48.812;11.762;2023-12-20T13:49:06;3.47;;;1.80;;
22160;SDS011;49035;48.812;11.762;2023-12-20T13:51:32;2.40;;;1.50;;
22160;SDS011;49035;48.812;11.762;2023-12-20T13:53:58;1.42;;;1.20;;
22160;SDS011;49035;48.812;11.762;2023-12-20T13:56:24;4.55;;;1.90;;
22160;SDS011;49035;48.812;11.762;2023-12-20T13:58:50;4.90;;;1.60;;
22160;SDS011;49035;48.812;11.762;2023-12-20T14:01:15;3.50;;;1.90;;
22160;SDS011;49035;48.812;11.762;2023-12-20T14:03:41;4.30;;;1.83;;
22160;SDS011;49035;48.812;11.762;2023-12-20T14:06:07;5.37;;;1.70;;
22160;SDS011;49035;48.812;11.762;2023-12-20T14:08:32;5.57;;;2.13;;
22160;SDS011;49035;48.812;11.762;2023-12-20T14:10:58;1.58;;;1.10;;
22160;SDS011;49035;48.812;11.762;2023-12-20T14:13:23;4.13;;;1.42;;
22160;SDS011;49035;48.812;11.762;2023-12-20T14:15:49;2.30;;;1.30;;
22160;SDS011;49035;48.812;11.762;2023-12-20T14:18:14;5.07;;;1.53;;
22160;SDS011;49035;48.812;11.762;2023-12-20T14:20:40;5.20;;;1.70;;
22160;SDS011;49035;48.812;11.762;2023-12-20T14:23:07;4.10;;;2.00;;
22160;SDS011;49035;48.812;11.762;2023-12-20T14:25:34;4.50;;;1.98;;
22160;SDS011;49035;48.812;11.762;2023-12-20T14:28:02;4.30;;;1.55;;
22160;SDS011;49035;48.812;11.762;2023-12-20T14:30:28;4.53;;;1.37;;
22160;SDS011;49035;48.812;11.762;2023-12-20T14:32:53;2.43;;;1.47;;